createdAt,value
2018-09-17T00:00:25.658Z,69.40
2018-09-17T00:02:54.126Z,69.70
2018-09-17T00:05:22.574Z,69.70
2018-09-17T00:07:51.107Z,69.80
2018-09-17T00:10:19.469Z,70.00
2018-09-17T00:12:47.859Z,70.00
2018-09-17T00:15:16.378Z,70.20
2018-09-17T00:17:44.802Z,70.40
2018-09-17T00:20:13.269Z,70.30
2018-09-17T00:22:41.650Z,70.40
2018-09-17T00:25:10.174Z,70.70
2018-09-17T00:27:38.622Z,71.00
2018-09-17T00:30:07.037Z,71.10
2018-09-17T00:32:35.551Z,71.10
2018-09-17T00:35:03.955Z,71.10
2018-09-17T00:37:32.538Z,71.20
2018-09-17T00:40:01.025Z,71.20
2018-09-17T00:42:29.523Z,70.80
2018-09-17T00:44:57.919Z,71.10
2018-09-17T00:47:26.384Z,71.20
2018-09-17T00:49:54.926Z,71.30
2018-09-17T00:52:23.423Z,71.30
2018-09-17T00:54:51.913Z,71.60
2018-09-17T00:57:20.410Z,72.20
2018-09-17T00:59:48.813Z,71.90
2018-09-17T01:02:17.177Z,71.80
2018-09-17T01:04:45.734Z,72.80
2018-09-17T01:07:14.257Z,71.80
2018-09-17T01:09:43.721Z,72.00
2018-09-17T01:12:13.749Z,72.10
2018-09-17T01:14:42.251Z,72.10
2018-09-17T01:17:10.650Z,72.30
2018-09-17T01:19:39.097Z,71.90
2018-09-17T01:22:07.470Z,71.90
2018-09-17T01:24:35.962Z,71.90
2018-09-17T01:27:04.435Z,71.00
2018-09-17T01:29:32.886Z,71.90
2018-09-17T01:32:01.363Z,71.90
2018-09-17T01:34:29.850Z,71.60
2018-09-17T01:36:58.294Z,72.00
2018-09-17T01:39:26.725Z,72.20
2018-09-17T01:41:55.207Z,72.40
2018-09-17T01:44:23.660Z,72.40
2018-09-17T01:46:52.090Z,72.40
2018-09-17T01:49:20.521Z,72.70
2018-09-17T01:51:48.896Z,73.00
2018-09-17T01:54:17.328Z,73.50
2018-09-17T01:56:45.686Z,73.70
2018-09-17T01:59:14.057Z,73.70
2018-09-17T02:01:42.574Z,73.60
2018-09-17T02:04:11.025Z,73.80
2018-09-17T02:06:39.467Z,73.70
2018-09-17T02:09:08.417Z,73.50
2018-09-17T02:11:37.014Z,74.50
2018-09-17T02:14:05.671Z,73.70
2018-09-17T02:16:34.067Z,74.30
2018-09-17T02:19:02.575Z,74.00
2018-09-17T02:21:31.014Z,73.80
2018-09-17T02:23:59.374Z,73.70
2018-09-17T02:26:27.815Z,73.60
2018-09-17T02:28:56.265Z,73.50
2018-09-17T02:31:24.703Z,73.70
2018-09-17T02:33:53.071Z,73.70
2018-09-17T02:36:21.490Z,73.80
2018-09-17T02:38:50.008Z,73.90
2018-09-17T02:41:18.481Z,73.90
2018-09-17T02:43:47.396Z,74.00
2018-09-17T02:46:15.842Z,73.90
2018-09-17T02:48:44.348Z,74.00
2018-09-17T02:51:12.828Z,73.90
2018-09-17T02:53:41.425Z,73.80
2018-09-17T02:56:09.731Z,73.80
2018-09-17T02:58:38.181Z,74.00
2018-09-17T03:01:06.647Z,74.10
2018-09-17T03:03:35.218Z,73.90
2018-09-17T03:06:03.711Z,73.90
2018-09-17T03:08:32.111Z,74.00
2018-09-17T03:11:00.671Z,74.00
2018-09-17T03:13:29.952Z,73.90
2018-09-17T03:15:58.418Z,74.00
2018-09-17T03:18:38.862Z,74.30
2018-09-17T03:21:07.789Z,74.40
2018-09-17T03:23:37.227Z,75.20
2018-09-17T03:26:05.890Z,74.30
2018-09-17T03:28:34.506Z,74.80
2018-09-17T03:31:03.012Z,75.00
2018-09-17T03:33:31.440Z,74.80
2018-09-17T03:35:59.913Z,75.20
2018-09-17T03:38:36.823Z,74.90
2018-09-17T03:41:06.405Z,74.80
2018-09-17T03:43:35.785Z,74.90
2018-09-17T03:46:04.314Z,74.80
2018-09-17T03:48:34.260Z,75.20
2018-09-17T03:51:03.395Z,75.20
2018-09-17T03:53:32.089Z,76.00
2018-09-17T03:56:00.669Z,76.20
2018-09-17T03:58:29.749Z,76.70
2018-09-17T04:00:58.753Z,76.60
2018-09-17T04:03:27.215Z,76.70
2018-09-17T04:05:55.656Z,76.90
2018-09-17T04:08:24.079Z,76.80
2018-09-17T04:10:52.588Z,77.10
2018-09-17T04:13:21.030Z,76.50
2018-09-17T04:15:49.442Z,76.70
2018-09-17T04:18:17.872Z,76.70
2018-09-17T04:20:46.303Z,76.80
2018-09-17T04:23:18.874Z,77.10
2018-09-17T04:25:47.438Z,77.10
2018-09-17T04:28:16.021Z,77.20
2018-09-17T04:30:44.597Z,77.30
2018-09-17T04:33:13.084Z,77.30
2018-09-17T04:35:41.595Z,77.40
2018-09-17T04:38:09.975Z,77.40
2018-09-17T04:40:38.342Z,77.60
2018-09-17T04:43:06.814Z,77.50
2018-09-17T04:45:35.319Z,77.60
2018-09-17T04:48:03.723Z,77.60
2018-09-17T04:50:32.117Z,77.70
2018-09-17T04:53:00.615Z,77.50
2018-09-17T04:55:28.983Z,77.40
2018-09-17T04:57:57.386Z,77.40
2018-09-17T05:00:25.857Z,77.40
2018-09-17T05:02:54.270Z,77.40
2018-09-17T05:05:22.681Z,77.30
2018-09-17T05:07:51.057Z,77.70
2018-09-17T05:10:19.465Z,77.60
2018-09-17T05:12:47.947Z,77.50
2018-09-17T05:15:16.369Z,77.30
2018-09-17T05:17:44.874Z,77.50
2018-09-17T05:20:13.360Z,77.30
2018-09-17T05:22:41.872Z,77.40
2018-09-17T05:25:10.276Z,77.50
2018-09-17T05:27:38.869Z,77.30
2018-09-17T05:30:07.384Z,76.70
2018-09-17T05:32:35.778Z,77.20
2018-09-17T05:35:04.421Z,77.20
2018-09-17T05:37:32.873Z,77.70
2018-09-17T05:40:01.309Z,77.90
2018-09-17T05:42:29.829Z,78.10
2018-09-17T05:44:58.297Z,78.10
2018-09-17T05:47:26.844Z,78.20
2018-09-17T05:49:55.267Z,78.20
2018-09-17T05:52:23.720Z,78.00
2018-09-17T05:54:52.104Z,78.10
2018-09-17T05:57:20.578Z,78.00
2018-09-17T05:59:49.055Z,78.10
2018-09-17T06:02:17.525Z,78.00
2018-09-17T06:04:46.103Z,78.20
2018-09-17T06:07:14.461Z,78.10
2018-09-17T06:09:43.049Z,77.90
2018-09-17T06:12:11.493Z,78.00
2018-09-17T06:14:40.096Z,78.00
2018-09-17T06:17:08.565Z,78.10
2018-09-17T06:19:37.056Z,78.10
2018-09-17T06:22:05.589Z,77.80
2018-09-17T06:24:34.232Z,77.50
2018-09-17T06:27:02.794Z,76.90
2018-09-17T06:29:31.345Z,77.10
2018-09-17T06:31:59.844Z,76.50
2018-09-17T06:34:28.326Z,76.10
2018-09-17T06:39:25.179Z,75.80
2018-09-17T06:41:53.703Z,75.30
2018-09-17T06:44:22.217Z,75.30
2018-09-17T06:46:50.609Z,75.00
2018-09-17T06:49:18.988Z,75.80
2018-09-17T06:51:47.419Z,74.70
2018-09-17T06:54:15.948Z,74.50
2018-09-17T06:56:44.377Z,74.30
2018-09-17T06:59:12.786Z,74.20
2018-09-17T07:01:41.301Z,74.10
2018-09-17T07:04:09.690Z,73.90
2018-09-17T07:06:38.259Z,74.00
2018-09-17T07:09:08.870Z,73.40
2018-09-17T07:11:37.305Z,73.50
2018-09-17T07:14:05.954Z,73.50
2018-09-17T07:16:34.370Z,73.10
2018-09-17T07:19:02.722Z,73.30
2018-09-17T07:21:31.611Z,72.90
2018-09-17T07:24:00.006Z,72.10
2018-09-17T07:26:28.738Z,71.80
2018-09-17T07:28:57.425Z,71.50
2018-09-17T07:31:25.947Z,71.30
2018-09-17T07:33:54.348Z,70.90
2018-09-17T07:36:22.914Z,71.20
2018-09-17T07:38:51.286Z,71.10
2018-09-17T07:41:19.710Z,71.20
2018-09-17T07:43:48.282Z,70.60
2018-09-17T07:46:16.690Z,70.70
2018-09-17T07:48:45.082Z,70.10
2018-09-17T07:51:13.546Z,69.90
2018-09-17T07:53:42.126Z,69.50
2018-09-17T07:56:10.710Z,69.80
2018-09-17T07:58:39.101Z,69.50
2018-09-17T08:01:07.802Z,70.20
2018-09-17T08:03:36.232Z,69.40
2018-09-17T08:06:04.755Z,69.40
2018-09-17T08:08:33.466Z,69.40
2018-09-17T08:11:02.023Z,69.20
2018-09-17T08:13:30.442Z,69.00
2018-09-17T08:15:58.877Z,68.60
2018-09-17T08:18:27.262Z,68.70
2018-09-17T08:20:55.701Z,67.80
2018-09-17T08:23:24.280Z,67.40
2018-09-17T08:25:52.760Z,67.10
2018-09-17T08:28:21.148Z,66.20
2018-09-17T08:30:49.573Z,65.90
2018-09-17T08:33:17.947Z,66.00
2018-09-17T08:35:46.303Z,65.90
2018-09-17T08:38:14.745Z,65.50
2018-09-17T08:40:43.228Z,65.10
2018-09-17T08:43:11.662Z,63.70
2018-09-17T08:45:40.083Z,63.90
2018-09-17T08:48:08.712Z,64.40
2018-09-17T08:50:37.138Z,64.50
2018-09-17T08:53:06.017Z,65.00
2018-09-17T08:55:39.688Z,64.80
2018-09-17T08:58:13.550Z,64.70
2018-09-17T09:00:49.234Z,64.80
2018-09-17T09:03:23.189Z,63.70
2018-09-17T09:05:56.825Z,63.40
2018-09-17T09:08:25.515Z,63.20
2018-09-17T09:10:59.291Z,62.80
2018-09-17T09:13:33.151Z,63.00
2018-09-17T09:16:01.582Z,62.70
2018-09-17T09:18:30.042Z,62.30
2018-09-17T09:20:58.577Z,62.30
2018-09-17T09:23:26.965Z,60.30
2018-09-17T09:25:55.420Z,60.30
2018-09-17T09:28:23.808Z,60.00
2018-09-17T09:30:52.337Z,59.40
2018-09-17T09:33:20.726Z,59.00
2018-09-17T09:35:49.150Z,58.90
2018-09-17T09:38:17.584Z,59.10
2018-09-17T09:40:46.194Z,59.30
2018-09-17T09:43:14.542Z,59.00
2018-09-17T09:45:42.917Z,59.00
2018-09-17T09:48:11.406Z,58.60
2018-09-17T09:50:39.957Z,58.50
2018-09-17T09:53:08.369Z,57.90
2018-09-17T09:55:36.751Z,57.80
2018-09-17T09:58:05.391Z,57.50
2018-09-17T10:00:39.184Z,57.60
2018-09-17T10:03:13.342Z,57.60
2018-09-17T10:05:41.837Z,57.40
2018-09-17T10:08:10.436Z,57.50
2018-09-17T10:10:44.157Z,57.10
2018-09-17T10:13:18.011Z,57.00
2018-09-17T10:15:50.689Z,56.60
2018-09-17T10:18:24.645Z,56.20
2018-09-17T10:20:53.025Z,54.90
2018-09-17T10:23:21.422Z,54.90
2018-09-17T10:25:49.800Z,55.00
2018-09-17T10:28:18.313Z,54.10
2018-09-17T10:30:46.734Z,53.70
2018-09-17T10:33:15.198Z,53.00
2018-09-17T10:35:43.730Z,52.70
2018-09-17T10:38:12.178Z,52.20
2018-09-17T10:40:40.566Z,52.00
2018-09-17T10:43:08.986Z,50.50
2018-09-17T10:45:37.498Z,50.20
2018-09-17T10:48:05.966Z,50.20
2018-09-17T10:50:34.397Z,49.70
2018-09-17T10:53:02.931Z,49.40
2018-09-17T10:55:31.303Z,49.60
2018-09-17T10:57:59.701Z,48.80
2018-09-17T11:00:28.103Z,48.70
2018-09-17T11:02:56.583Z,47.80
2018-09-17T11:05:24.981Z,47.30
2018-09-17T11:07:53.375Z,46.70
2018-09-17T11:10:21.751Z,46.60
2018-09-17T11:12:50.298Z,47.00
2018-09-17T11:15:18.736Z,45.90
2018-09-17T11:17:47.129Z,44.70
2018-09-17T11:20:15.577Z,44.20
2018-09-17T11:22:43.954Z,42.80
2018-09-17T11:25:12.471Z,42.20
2018-09-17T11:27:41.031Z,41.90
2018-09-17T11:30:09.422Z,41.60
2018-09-17T11:32:37.838Z,41.80
2018-09-17T11:35:06.270Z,41.90
2018-09-17T11:37:34.637Z,41.60
2018-09-17T11:40:03.199Z,41.50
2018-09-17T11:42:31.587Z,41.30
2018-09-17T11:44:59.941Z,40.40
2018-09-17T11:47:28.438Z,40.90
2018-09-17T11:49:56.984Z,40.40
2018-09-17T11:52:25.513Z,40.40
2018-09-17T11:54:53.993Z,40.30
2018-09-17T11:57:22.509Z,40.20
2018-09-17T11:59:50.984Z,40.30
2018-09-17T12:02:24.696Z,40.10
2018-09-17T12:04:59.467Z,39.20
2018-09-17T12:07:33.211Z,38.60
2018-09-17T12:10:01.799Z,39.60
2018-09-17T12:12:30.414Z,38.80
2018-09-17T12:14:58.818Z,38.10
2018-09-17T12:17:27.216Z,38.50
2018-09-17T12:19:55.821Z,38.50
2018-09-17T12:22:24.190Z,38.30
2018-09-17T12:24:52.882Z,38.10
2018-09-17T12:27:21.332Z,37.90
2018-09-17T12:29:49.725Z,37.30
2018-09-17T12:32:18.188Z,37.50
2018-09-17T12:34:46.623Z,37.00
2018-09-17T12:37:15.408Z,37.10
2018-09-17T12:39:43.997Z,37.00
2018-09-17T12:42:12.402Z,36.60
2018-09-17T12:44:41.145Z,36.40
2018-09-17T12:47:09.648Z,35.90
2018-09-17T12:49:38.054Z,35.30
2018-09-17T12:52:06.793Z,35.70
2018-09-17T12:54:35.193Z,35.20
2018-09-17T12:57:03.733Z,33.90
2018-09-17T12:59:32.086Z,33.60
2018-09-17T13:02:00.493Z,33.60
2018-09-17T13:04:29.011Z,33.90
2018-09-17T13:06:57.663Z,34.30
2018-09-17T13:09:26.181Z,34.10
2018-09-17T13:11:54.543Z,34.20
2018-09-17T13:14:23.130Z,34.50
2018-09-17T13:16:51.547Z,34.80
2018-09-17T13:19:19.915Z,35.10
2018-09-17T13:21:48.275Z,34.80
2018-09-17T13:24:16.781Z,34.50
2018-09-17T13:26:45.211Z,34.40
2018-09-17T13:29:13.542Z,34.90
2018-09-17T13:31:42.079Z,34.80
2018-09-17T13:34:10.475Z,34.70
2018-09-17T13:36:42.026Z,35.00
2018-09-17T13:39:10.481Z,35.20
2018-09-17T13:41:38.882Z,35.00
2018-09-17T13:44:07.415Z,35.40
2018-09-17T13:46:35.820Z,35.20
2018-09-17T13:49:04.373Z,35.30
2018-09-17T13:51:32.798Z,35.70
2018-09-17T13:54:01.353Z,35.90
2018-09-17T13:56:29.849Z,35.70
2018-09-17T13:58:58.223Z,35.40
2018-09-17T14:01:26.663Z,35.20
2018-09-17T14:03:55.187Z,35.90
2018-09-17T14:06:23.622Z,36.00
2018-09-17T14:08:52.237Z,35.90
2018-09-17T14:11:20.719Z,35.50
2018-09-17T14:13:49.231Z,35.30
2018-09-17T14:16:21.875Z,35.00
2018-09-17T14:18:50.374Z,34.70
2018-09-17T14:21:18.801Z,35.30
2018-09-17T14:23:47.336Z,34.40
2018-09-17T14:26:15.701Z,34.40
2018-09-17T14:28:44.037Z,34.60
2018-09-17T14:31:12.530Z,34.60
2018-09-17T14:33:41.246Z,33.90
2018-09-17T14:36:09.765Z,34.00
2018-09-17T14:38:38.273Z,34.00
2018-09-17T14:41:06.734Z,33.80
2018-09-17T14:43:35.184Z,33.40
2018-09-17T14:46:03.536Z,33.70
2018-09-17T14:48:32.031Z,33.80
2018-09-17T14:51:00.519Z,33.40
2018-09-17T14:53:29.099Z,33.30
2018-09-17T14:55:57.486Z,33.50
2018-09-17T14:58:26.029Z,33.10
2018-09-17T15:00:54.332Z,33.10
2018-09-17T15:03:22.788Z,33.20
2018-09-17T15:05:51.245Z,33.40
2018-09-17T15:08:19.753Z,33.50
2018-09-17T15:10:48.276Z,33.40
2018-09-17T15:13:16.852Z,33.00
2018-09-17T15:15:51.431Z,32.60
2018-09-17T15:18:19.945Z,32.70
2018-09-17T15:20:48.459Z,33.00
2018-09-17T15:23:16.826Z,33.50
2018-09-17T15:25:45.509Z,33.90
2018-09-17T15:28:13.999Z,33.90
2018-09-17T15:30:42.379Z,34.20
2018-09-17T15:33:10.952Z,34.50
2018-09-17T15:35:39.394Z,34.20
2018-09-17T15:38:07.991Z,34.30
2018-09-17T15:40:36.528Z,34.60
2018-09-17T15:43:05.038Z,34.70
2018-09-17T15:45:33.503Z,35.10
2018-09-17T15:48:02.064Z,35.00
2018-09-17T15:50:30.542Z,35.10
2018-09-17T15:52:58.998Z,35.10
2018-09-17T15:55:27.612Z,35.30
2018-09-17T15:57:56.185Z,35.40
2018-09-17T16:00:24.592Z,35.30
2018-09-17T16:02:52.999Z,35.70
2018-09-17T16:05:21.539Z,35.90
2018-09-17T16:07:50.012Z,35.90
2018-09-17T16:10:18.504Z,36.10
2018-09-17T16:12:47.055Z,36.30
2018-09-17T16:15:15.485Z,36.10
2018-09-17T16:17:43.878Z,35.90
2018-09-17T16:20:12.478Z,36.10
2018-09-17T16:22:40.882Z,36.30
2018-09-17T16:25:09.419Z,36.70
2018-09-17T16:27:37.778Z,37.20
2018-09-17T16:30:08.027Z,37.50
2018-09-17T16:32:36.537Z,37.10
2018-09-17T16:35:05.062Z,37.20
2018-09-17T16:37:33.550Z,37.40
2018-09-17T16:40:02.066Z,37.20
2018-09-17T16:42:30.427Z,37.60
2018-09-17T16:44:58.931Z,38.40
2018-09-17T16:47:27.456Z,39.20
2018-09-17T16:49:55.907Z,39.10
2018-09-17T16:52:24.359Z,39.40
2018-09-17T16:54:52.822Z,39.20
2018-09-17T16:57:21.269Z,38.80
2018-09-17T16:59:50.142Z,39.50
2018-09-17T17:02:18.826Z,39.40
2018-09-17T17:04:47.288Z,39.20
2018-09-17T17:07:15.778Z,39.40
2018-09-17T17:09:44.303Z,39.70
2018-09-17T17:12:12.871Z,39.70
2018-09-17T17:14:41.288Z,39.80
2018-09-17T17:17:09.731Z,39.80
2018-09-17T17:19:38.272Z,39.70
2018-09-17T17:22:06.742Z,40.00
2018-09-17T17:24:35.500Z,40.30
2018-09-17T17:27:04.026Z,40.10
2018-09-17T17:29:32.567Z,40.10
2018-09-17T17:32:01.137Z,41.70
2018-09-17T17:34:29.804Z,42.40
2018-09-17T17:36:58.412Z,42.60
2018-09-17T17:39:28.573Z,43.00
2018-09-17T17:41:57.698Z,44.10
2018-09-17T17:44:27.581Z,43.50
2018-09-17T17:46:56.651Z,45.80
2018-09-17T17:49:25.883Z,44.90
2018-09-17T17:51:56.080Z,44.70
2018-09-17T17:54:25.196Z,44.50
2018-09-17T17:56:53.698Z,44.70
2018-09-17T17:59:22.343Z,45.00
2018-09-17T18:01:51.383Z,44.70
2018-09-17T18:04:20.045Z,45.20
2018-09-17T18:06:48.617Z,45.10
2018-09-17T18:09:17.107Z,44.50
2018-09-17T18:11:45.565Z,43.80
2018-09-17T18:14:14.077Z,43.90
2018-09-17T18:16:42.570Z,43.50
2018-09-17T18:19:11.060Z,43.60
2018-09-17T18:21:40.562Z,43.90
2018-09-17T18:24:08.961Z,44.20
2018-09-17T18:26:37.661Z,44.50
2018-09-17T18:29:06.221Z,45.20
2018-09-17T18:31:34.637Z,45.70
2018-09-17T18:34:03.031Z,45.50
2018-09-17T18:36:31.552Z,46.60
2018-09-17T18:39:00.219Z,46.30
2018-09-17T18:41:28.627Z,46.60
2018-09-17T18:43:57.194Z,45.90
2018-09-17T18:46:25.826Z,46.20
2018-09-17T18:48:54.235Z,46.20
2018-09-17T18:51:23.918Z,46.50
2018-09-17T18:53:53.285Z,46.00
2018-09-17T18:56:21.803Z,46.40
2018-09-17T18:58:50.417Z,46.00
2018-09-17T19:01:19.042Z,45.80
2018-09-17T19:03:47.598Z,46.20
2018-09-17T19:06:16.098Z,46.20
2018-09-17T19:08:44.781Z,46.30
2018-09-17T19:11:13.269Z,46.20
2018-09-17T19:13:41.913Z,46.90
2018-09-17T19:16:10.454Z,46.80
2018-09-17T19:18:38.893Z,47.20
2018-09-17T19:21:07.580Z,48.00
2018-09-17T19:23:41.137Z,47.10
2018-09-17T19:26:09.895Z,47.30
2018-09-17T19:28:43.606Z,47.40
2018-09-17T19:31:12.131Z,47.70
2018-09-17T19:33:40.609Z,47.70
2018-09-17T19:36:09.367Z,48.00
2018-09-17T19:38:43.246Z,48.00
2018-09-17T19:41:11.843Z,48.30
2018-09-17T19:43:40.456Z,48.30
2018-09-17T19:46:14.290Z,48.30
2018-09-17T19:48:42.706Z,48.40
2018-09-17T19:51:16.536Z,48.50
2018-09-17T19:53:45.000Z,48.70
2018-09-17T19:56:13.492Z,49.00
2018-09-17T19:58:47.246Z,49.20
2018-09-17T20:01:15.716Z,49.30
2018-09-17T20:03:44.223Z,49.60
2018-09-17T20:06:18.031Z,49.70
2018-09-17T20:08:46.562Z,49.80
2018-09-17T20:11:15.175Z,49.80
2018-09-17T20:13:43.620Z,50.00
2018-09-17T20:16:18.234Z,50.00
2018-09-17T20:18:46.878Z,49.90
2018-09-17T20:21:15.486Z,49.60
2018-09-17T20:23:43.933Z,49.70
2018-09-17T20:26:12.346Z,50.10
2018-09-17T20:28:40.765Z,50.10
2018-09-17T20:31:09.232Z,50.40
2018-09-17T20:33:37.587Z,50.30
2018-09-17T20:36:12.794Z,51.20
2018-09-17T20:38:41.362Z,50.70
2018-09-17T20:41:09.837Z,50.90
2018-09-17T20:43:38.503Z,51.00
2018-09-17T20:46:07.053Z,51.00
2018-09-17T20:48:35.613Z,50.90
2018-09-17T20:51:05.069Z,51.10
2018-09-17T20:53:33.550Z,50.90
2018-09-17T20:56:02.129Z,51.00
2018-09-17T20:58:30.577Z,51.10
2018-09-17T21:00:59.132Z,51.20
2018-09-17T21:03:27.574Z,51.30
2018-09-17T21:05:56.068Z,51.40
2018-09-17T21:08:24.612Z,51.50
2018-09-17T21:10:53.026Z,51.60
2018-09-17T21:13:21.520Z,51.40
2018-09-17T21:15:49.891Z,51.70
2018-09-17T21:18:18.501Z,51.60
2018-09-17T21:20:46.886Z,51.70
2018-09-17T21:23:15.533Z,51.60
2018-09-17T21:25:43.947Z,51.80
2018-09-17T21:28:12.477Z,51.70
2018-09-17T21:30:40.946Z,51.90
2018-09-17T21:33:09.443Z,52.00
2018-09-17T21:35:37.832Z,52.10
2018-09-17T21:38:06.377Z,51.90
2018-09-17T21:40:34.911Z,52.10
2018-09-17T21:43:03.670Z,52.30
2018-09-17T21:45:32.000Z,52.50
2018-09-17T21:48:00.510Z,52.90
2018-09-17T21:50:28.972Z,52.70
2018-09-17T21:52:57.647Z,53.00
2018-09-17T21:55:26.197Z,53.00
2018-09-17T21:57:54.684Z,53.10
2018-09-17T22:00:23.051Z,53.40
2018-09-17T22:02:51.841Z,53.40
2018-09-17T22:05:20.433Z,53.30
2018-09-17T22:07:49.126Z,53.20
2018-09-17T22:10:17.738Z,53.60
2018-09-17T22:12:46.522Z,54.00
2018-09-17T22:15:14.936Z,53.30
2018-09-17T22:17:43.497Z,53.50
2018-09-17T22:20:11.938Z,53.60
2018-09-17T22:22:40.345Z,53.60
2018-09-17T22:25:08.818Z,53.40
2018-09-17T22:27:37.270Z,53.40
2018-09-17T22:30:05.961Z,53.60
2018-09-17T22:32:34.455Z,53.60
2018-09-17T22:35:03.091Z,53.60
2018-09-17T22:37:31.715Z,53.60
2018-09-17T22:40:00.245Z,53.70
2018-09-17T22:42:29.174Z,53.90
2018-09-17T22:44:57.694Z,53.60
2018-09-17T22:47:26.172Z,53.50
2018-09-17T22:49:54.684Z,53.70
2018-09-17T22:52:23.091Z,53.50
2018-09-17T22:54:51.691Z,53.60
2018-09-17T22:57:20.096Z,53.80
2018-09-17T22:59:48.525Z,53.80
2018-09-17T23:02:17.049Z,53.90
2018-09-17T23:04:45.570Z,54.20
2018-09-17T23:07:14.005Z,54.30
2018-09-17T23:09:42.431Z,54.40
2018-09-17T23:12:10.983Z,54.50
2018-09-17T23:14:39.366Z,54.60
2018-09-17T23:17:07.869Z,54.70
2018-09-17T23:19:36.375Z,54.80
2018-09-17T23:22:04.823Z,54.90
2018-09-17T23:24:33.262Z,54.90
2018-09-17T23:27:01.764Z,55.00
2018-09-17T23:29:30.106Z,54.90
2018-09-17T23:31:58.541Z,54.90
2018-09-17T23:34:26.986Z,55.00
2018-09-17T23:36:55.413Z,54.80
2018-09-17T23:39:23.843Z,54.70
2018-09-17T23:41:52.411Z,54.30
2018-09-17T23:44:20.842Z,54.40
2018-09-17T23:46:49.322Z,54.50
2018-09-17T23:49:17.762Z,54.20
2018-09-17T23:51:46.240Z,54.20
2018-09-17T23:54:14.590Z,53.90
2018-09-17T23:56:43.651Z,53.90
2018-09-17T23:59:12.103Z,53.70
